createdAt,value
2022-11-27T00:00:29.899Z,12.38
2022-11-27T00:02:33.316Z,12.31
2022-11-27T00:04:38.549Z,12.33
2022-11-27T00:06:41.696Z,12.36
2022-11-27T00:08:44.852Z,12.42
2022-11-27T00:10:46.682Z,12.50
2022-11-27T00:12:48.480Z,12.50
2022-11-27T00:14:54.668Z,12.47
2022-11-27T00:16:59.954Z,12.49
2022-11-27T00:19:01.854Z,12.51
2022-11-27T00:21:07.644Z,12.45
2022-11-27T00:23:09.384Z,12.42
2022-11-27T00:25:11.241Z,12.53
2022-11-27T00:27:13.090Z,12.42
2022-11-27T00:29:14.943Z,12.40
2022-11-27T00:31:20.613Z,12.50
2022-11-27T00:33:22.458Z,12.59
2022-11-27T00:35:24.254Z,12.43
2022-11-27T00:37:26.084Z,12.38
2022-11-27T00:39:28.094Z,12.46
2022-11-27T00:41:30.999Z,12.36
2022-11-27T00:43:43.225Z,12.37
2022-11-27T00:45:50.004Z,12.32
2022-11-27T00:47:51.729Z,12.27
2022-11-27T00:49:53.551Z,12.32
2022-11-27T00:51:55.314Z,12.28
2022-11-27T00:53:58.519Z,12.36
2022-11-27T00:56:00.843Z,12.33
2022-11-27T00:58:02.661Z,12.25
2022-11-27T01:00:06.589Z,12.18
2022-11-27T01:02:08.596Z,12.19
2022-11-27T01:04:15.433Z,12.16
2022-11-27T01:06:19.249Z,12.33
2022-11-27T01:08:21.935Z,12.35
2022-11-27T01:10:23.751Z,12.18
2022-11-27T01:12:25.513Z,12.17
2022-11-27T01:14:27.350Z,12.31
2022-11-27T01:16:30.815Z,12.16
2022-11-27T01:18:33.644Z,12.28
2022-11-27T01:20:40.000Z,12.25
2022-11-27T01:22:41.793Z,12.22
2022-11-27T01:24:44.014Z,12.23
2022-11-27T01:26:46.059Z,12.30
2022-11-27T01:28:48.140Z,12.39
2022-11-27T01:30:50.921Z,12.25
2022-11-27T01:32:52.705Z,12.38
2022-11-27T01:34:54.795Z,12.28
2022-11-27T01:36:56.563Z,12.25
2022-11-27T01:38:59.139Z,12.27
2022-11-27T01:41:04.694Z,12.29
2022-11-27T01:43:11.109Z,12.29
2022-11-27T01:45:16.744Z,12.46
2022-11-27T01:47:27.749Z,12.45
2022-11-27T01:49:38.457Z,12.40
2022-11-27T01:51:47.208Z,12.43
2022-11-27T01:53:49.927Z,12.29
2022-11-27T01:55:58.578Z,12.29
2022-11-27T01:58:12.353Z,12.38
2022-11-27T02:00:16.520Z,12.35
2022-11-27T02:02:18.698Z,12.29
2022-11-27T02:04:20.519Z,12.41
2022-11-27T02:06:22.381Z,12.39
2022-11-27T02:08:24.240Z,12.40
2022-11-27T02:10:39.070Z,12.43
2022-11-27T02:12:51.794Z,12.45
2022-11-27T02:14:57.174Z,12.36
2022-11-27T02:17:09.954Z,12.45
2022-11-27T02:19:35.565Z,12.51
2022-11-27T02:21:54.703Z,12.49
2022-11-27T02:24:02.740Z,12.58
2022-11-27T02:26:23.425Z,12.63
2022-11-27T02:28:44.449Z,12.63
2022-11-27T02:30:57.719Z,12.68
2022-11-27T02:33:03.277Z,12.53
2022-11-27T02:35:17.997Z,12.62
2022-11-27T02:37:27.767Z,12.73
2022-11-27T02:39:38.681Z,12.62
2022-11-27T02:41:50.922Z,12.70
2022-11-27T02:43:54.324Z,12.76
2022-11-27T02:45:59.184Z,12.82
2022-11-27T02:48:01.100Z,12.81
2022-11-27T02:50:04.059Z,12.80
2022-11-27T02:52:06.971Z,12.86
2022-11-27T02:54:13.954Z,12.92
2022-11-27T02:56:20.530Z,12.77
2022-11-27T02:58:25.705Z,12.88
2022-11-27T03:00:28.788Z,12.80
2022-11-27T03:02:35.261Z,12.89
2022-11-27T03:04:45.840Z,12.81
2022-11-27T03:06:53.359Z,12.87
2022-11-27T03:09:05.205Z,12.91
2022-11-27T03:11:11.041Z,12.87
2022-11-27T03:13:12.884Z,12.90
2022-11-27T03:15:15.045Z,12.87
2022-11-27T03:17:33.901Z,12.91
2022-11-27T03:19:51.379Z,13.05
2022-11-27T03:21:57.066Z,13.03
2022-11-27T03:23:59.424Z,13.02
2022-11-27T03:26:01.188Z,12.96
2022-11-27T03:28:07.434Z,13.10
2022-11-27T03:30:11.002Z,13.09
2022-11-27T03:32:13.140Z,13.14
2022-11-27T03:34:16.440Z,13.09
2022-11-27T03:36:20.181Z,13.19
2022-11-27T03:38:22.017Z,13.14
2022-11-27T03:40:31.659Z,13.16
2022-11-27T03:42:52.404Z,13.17
2022-11-27T03:45:13.371Z,13.17
2022-11-27T03:47:26.220Z,13.22
2022-11-27T03:49:34.149Z,13.23
2022-11-27T03:51:45.030Z,13.26
2022-11-27T03:53:59.666Z,13.22
2022-11-27T03:56:12.126Z,13.23
2022-11-27T03:58:18.017Z,13.26
2022-11-27T04:00:20.001Z,13.23
2022-11-27T04:02:39.696Z,13.20
2022-11-27T04:04:42.039Z,13.22
2022-11-27T04:06:44.070Z,13.22
2022-11-27T04:08:47.715Z,13.32
2022-11-27T04:10:49.449Z,13.26
2022-11-27T04:12:51.238Z,13.33
2022-11-27T04:14:52.973Z,13.39
2022-11-27T04:16:54.745Z,13.31
2022-11-27T04:18:56.465Z,13.34
2022-11-27T04:20:58.265Z,13.35
2022-11-27T04:23:00.304Z,13.38
2022-11-27T04:25:02.128Z,13.41
2022-11-27T04:27:03.970Z,13.34
2022-11-27T04:29:05.805Z,13.42
2022-11-27T04:31:07.639Z,13.38
2022-11-27T04:33:09.405Z,13.33
2022-11-27T04:35:11.165Z,13.48
2022-11-27T04:37:13.305Z,13.46
2022-11-27T04:39:15.305Z,13.50
2022-11-27T04:41:17.065Z,13.47
2022-11-27T04:43:18.900Z,13.43
2022-11-27T04:45:20.805Z,13.43
2022-11-27T04:47:22.659Z,13.44
2022-11-27T04:49:24.389Z,13.44
2022-11-27T04:51:26.149Z,13.52
2022-11-27T04:53:28.049Z,13.56
2022-11-27T04:55:29.859Z,13.48
2022-11-27T04:57:31.725Z,13.54
2022-11-27T04:59:33.537Z,13.63
2022-11-27T05:01:35.638Z,13.65
2022-11-27T05:03:37.440Z,13.67
2022-11-27T05:05:39.189Z,13.66
2022-11-27T05:07:41.023Z,13.72
2022-11-27T05:09:42.820Z,13.69
2022-11-27T05:11:45.345Z,13.73
2022-11-27T05:13:47.384Z,13.71
2022-11-27T05:15:49.203Z,13.77
2022-11-27T05:17:51.055Z,13.75
2022-11-27T05:19:52.844Z,13.79
2022-11-27T05:21:55.184Z,13.76
2022-11-27T05:23:56.929Z,13.76
2022-11-27T05:25:58.906Z,13.75
2022-11-27T05:28:00.644Z,13.76
2022-11-27T05:30:02.429Z,13.82
2022-11-27T05:32:04.499Z,13.71
2022-11-27T05:34:07.399Z,13.79
2022-11-27T05:36:09.569Z,13.73
2022-11-27T05:38:12.680Z,13.82
2022-11-27T05:40:14.709Z,13.78
2022-11-27T05:42:16.629Z,13.82
2022-11-27T05:44:18.465Z,13.71
2022-11-27T05:46:22.344Z,13.69
2022-11-27T05:48:24.149Z,13.75
2022-11-27T05:50:25.939Z,13.81
2022-11-27T05:52:27.844Z,13.72
2022-11-27T05:54:29.589Z,13.72
2022-11-27T05:56:31.379Z,13.73
2022-11-27T05:58:34.699Z,13.82
2022-11-27T06:00:36.458Z,13.79
2022-11-27T06:02:38.393Z,13.79
2022-11-27T06:04:40.824Z,13.81
2022-11-27T06:06:42.798Z,13.79
2022-11-27T06:08:45.627Z,13.77
2022-11-27T06:10:48.509Z,13.74
2022-11-27T06:12:50.280Z,13.79
2022-11-27T06:14:52.013Z,13.83
2022-11-27T06:16:54.101Z,13.82
2022-11-27T06:18:56.312Z,13.90
2022-11-27T06:20:58.064Z,13.89
2022-11-27T06:22:59.917Z,13.92
2022-11-27T06:25:01.872Z,13.92
2022-11-27T06:27:05.131Z,13.92
2022-11-27T06:29:07.210Z,13.93
2022-11-27T06:31:17.501Z,13.95
2022-11-27T06:33:19.791Z,13.87
2022-11-27T06:35:21.839Z,13.84
2022-11-27T06:37:32.429Z,13.79
2022-11-27T06:39:34.665Z,13.82
2022-11-27T06:41:36.980Z,13.88
2022-11-27T06:43:39.830Z,13.78
2022-11-27T06:45:42.412Z,13.86
2022-11-27T06:47:45.810Z,13.86
2022-11-27T06:49:49.369Z,13.92
2022-11-27T06:51:51.481Z,13.92
2022-11-27T06:54:00.222Z,13.93
2022-11-27T06:56:19.160Z,13.97
2022-11-27T06:58:30.694Z,13.98
2022-11-27T07:00:33.660Z,13.95
2022-11-27T07:02:35.868Z,13.93
2022-11-27T07:04:38.208Z,13.93
2022-11-27T07:06:42.834Z,13.92
2022-11-27T07:08:45.831Z,13.97
2022-11-27T07:10:47.777Z,14.01
2022-11-27T07:12:50.109Z,14.02
2022-11-27T07:14:52.811Z,14.02
2022-11-27T07:16:55.745Z,14.04
2022-11-27T07:19:01.994Z,13.96
2022-11-27T07:21:04.729Z,14.07
2022-11-27T07:23:07.271Z,14.02
2022-11-27T07:25:09.742Z,14.09
2022-11-27T07:27:14.535Z,14.11
2022-11-27T07:29:16.689Z,14.11
2022-11-27T07:31:21.657Z,14.14
2022-11-27T07:33:26.176Z,14.10
2022-11-27T07:35:28.609Z,14.10
2022-11-27T07:37:32.475Z,14.15
2022-11-27T07:40:00.879Z,14.06
2022-11-27T07:42:00.172Z,14.16
2022-11-27T07:44:11.203Z,14.19
2022-11-27T07:46:19.470Z,14.18
2022-11-27T07:48:25.590Z,14.12
2022-11-27T07:50:27.779Z,14.11
2022-11-27T07:52:29.978Z,14.11
2022-11-27T07:54:32.883Z,14.12
2022-11-27T07:56:35.058Z,14.13
2022-11-27T07:58:37.490Z,14.15
2022-11-27T08:00:40.433Z,14.14
2022-11-27T08:02:42.776Z,14.20
2022-11-27T08:04:45.852Z,14.22
2022-11-27T08:06:50.905Z,14.19
2022-11-27T08:08:59.894Z,14.24
2022-11-27T08:11:02.410Z,14.22
2022-11-27T08:13:05.716Z,14.21
2022-11-27T08:15:08.706Z,14.18
2022-11-27T08:17:13.249Z,14.29
2022-11-27T08:19:15.210Z,14.29
2022-11-27T08:21:17.070Z,14.33
2022-11-27T08:23:18.959Z,14.35
2022-11-27T08:25:20.919Z,14.38
2022-11-27T08:27:23.179Z,14.40
2022-11-27T08:29:31.167Z,14.42
2022-11-27T08:31:35.780Z,14.40
2022-11-27T08:33:38.138Z,14.42
2022-11-27T08:35:41.783Z,14.43
2022-11-27T08:37:44.069Z,14.43
2022-11-27T08:39:46.808Z,14.42
2022-11-27T08:41:49.820Z,14.39
2022-11-27T08:43:52.265Z,14.40
2022-11-27T08:46:00.655Z,14.39
2022-11-27T08:48:07.511Z,14.32
2022-11-27T08:50:11.758Z,14.28
2022-11-27T08:52:19.995Z,14.27
2022-11-27T08:54:27.490Z,14.18
2022-11-27T08:56:31.559Z,14.29
2022-11-27T08:58:36.553Z,14.35
2022-11-27T09:00:40.795Z,14.38
2022-11-27T09:02:46.225Z,14.43
2022-11-27T09:04:48.499Z,14.50
2022-11-27T09:06:53.994Z,14.48
2022-11-27T09:09:02.135Z,14.48
2022-11-27T09:11:05.605Z,14.45
2022-11-27T09:13:08.575Z,14.45
2022-11-27T09:15:13.539Z,14.50
2022-11-27T09:17:19.039Z,14.51
2022-11-27T09:19:24.170Z,14.51
2022-11-27T09:21:29.010Z,14.55
2022-11-27T09:23:35.433Z,14.56
2022-11-27T09:25:44.022Z,14.57
2022-11-27T09:27:48.912Z,14.54
2022-11-27T09:29:55.955Z,14.55
2022-11-27T09:32:01.500Z,14.51
2022-11-27T09:34:23.440Z,14.47
2022-11-27T09:36:31.409Z,14.53
2022-11-27T09:38:34.889Z,14.55
2022-11-27T09:40:39.254Z,14.57
2022-11-27T09:42:56.071Z,14.55
2022-11-27T09:45:01.741Z,14.54
2022-11-27T09:47:21.327Z,14.51
2022-11-27T09:49:32.766Z,14.53
2022-11-27T09:51:50.953Z,14.54
2022-11-27T09:54:06.141Z,14.57
2022-11-27T09:56:15.678Z,14.55
2022-11-27T09:58:31.661Z,14.60
2022-11-27T10:00:38.055Z,14.59
2022-11-27T10:02:46.797Z,14.59
2022-11-27T10:05:12.954Z,14.51
2022-11-27T10:07:16.725Z,14.51
2022-11-27T10:09:32.240Z,14.53
2022-11-27T10:11:56.582Z,14.54
2022-11-27T10:14:13.278Z,14.53
2022-11-27T10:16:19.999Z,14.43
2022-11-27T10:18:43.630Z,14.51
2022-11-27T10:21:01.839Z,14.47
2022-11-27T10:23:38.457Z,14.51
2022-11-27T10:25:54.435Z,14.60
2022-11-27T10:28:08.525Z,14.57
2022-11-27T10:30:29.326Z,14.69
2022-11-27T10:32:54.505Z,14.76
2022-11-27T10:35:15.160Z,14.73
2022-11-27T10:37:27.103Z,14.75
2022-11-27T10:39:41.584Z,14.80
2022-11-27T10:42:11.430Z,14.82
2022-11-27T10:44:37.727Z,14.73
2022-11-27T10:46:45.731Z,14.77
2022-11-27T10:48:55.653Z,14.75
2022-11-27T10:51:07.732Z,14.79
2022-11-27T10:53:40.236Z,14.79
2022-11-27T10:56:07.184Z,14.73
2022-11-27T10:58:40.734Z,14.72
2022-11-27T11:00:50.682Z,14.72
2022-11-27T11:03:07.336Z,14.78
2022-11-27T11:05:37.669Z,14.80
2022-11-27T11:07:58.735Z,14.79
2022-11-27T11:10:00.695Z,14.81
2022-11-27T11:14:31.437Z,14.85
2022-11-27T11:16:41.975Z,14.85
2022-11-27T11:23:38.329Z,14.80
2022-11-27T11:25:53.840Z,14.82
2022-11-27T11:28:00.521Z,14.82
2022-11-27T11:30:08.708Z,14.90
2022-11-27T11:32:21.151Z,14.84
2022-11-27T11:34:31.566Z,14.87
2022-11-27T11:36:52.798Z,14.88
2022-11-27T11:38:55.095Z,14.91
2022-11-27T11:41:20.137Z,14.91
2022-11-27T11:43:36.512Z,14.96
2022-11-27T11:45:50.923Z,14.97
2022-11-27T11:48:07.536Z,14.94
2022-11-27T11:50:15.995Z,14.86
2022-11-27T11:52:39.102Z,14.92
2022-11-27T11:55:03.415Z,15.01
2022-11-27T11:57:27.674Z,15.01
2022-11-27T11:59:50.657Z,15.04
2022-11-27T12:02:06.330Z,15.07
2022-11-27T12:07:26.940Z,15.13
2022-11-27T12:09:40.626Z,15.06
2022-11-27T12:12:01.533Z,15.09
2022-11-27T12:14:27.090Z,15.14
2022-11-27T12:16:48.882Z,15.17
2022-11-27T12:19:19.471Z,15.13
2022-11-27T12:21:43.832Z,15.18
2022-11-27T12:24:00.356Z,15.16
2022-11-27T12:26:22.613Z,15.24
2022-11-27T12:29:17.865Z,15.20
2022-11-27T12:31:37.750Z,15.18
2022-11-27T12:33:50.724Z,15.19
2022-11-27T12:36:01.856Z,15.19
2022-11-27T12:38:21.868Z,15.21
2022-11-27T12:40:52.912Z,15.18
2022-11-27T12:43:14.498Z,15.21
2022-11-27T12:45:27.434Z,15.19
2022-11-27T12:50:03.582Z,15.15
2022-11-27T12:52:15.934Z,15.15
2022-11-27T12:54:24.224Z,15.16
2022-11-27T12:56:31.970Z,15.19
2022-11-27T12:58:40.192Z,15.23
2022-11-27T13:00:44.030Z,15.25
2022-11-27T13:03:06.274Z,15.20
2022-11-27T13:05:18.474Z,15.29
2022-11-27T13:07:28.833Z,15.20
2022-11-27T13:09:47.536Z,15.24
2022-11-27T13:11:50.018Z,15.24
2022-11-27T13:13:59.770Z,15.21
2022-11-27T13:16:06.923Z,15.23
2022-11-27T13:18:21.911Z,15.24
2022-11-27T13:20:32.720Z,15.23
2022-11-27T13:22:37.026Z,15.24
2022-11-27T13:24:39.627Z,15.23
2022-11-27T13:26:51.810Z,15.29
2022-11-27T13:28:59.065Z,15.29
2022-11-27T13:31:03.185Z,15.31
2022-11-27T13:33:07.590Z,15.30
2022-11-27T13:35:20.740Z,15.34
2022-11-27T13:37:28.199Z,15.33
2022-11-27T13:39:34.769Z,15.37
2022-11-27T13:41:40.370Z,15.39
2022-11-27T13:43:44.726Z,15.26
2022-11-27T13:45:47.158Z,15.33
2022-11-27T13:47:50.570Z,15.29
2022-11-27T13:50:03.152Z,15.36
2022-11-27T13:52:15.942Z,15.37
2022-11-27T13:54:25.931Z,15.26
2022-11-27T13:56:31.585Z,15.36
2022-11-27T13:58:37.466Z,15.33
2022-11-27T14:00:43.311Z,15.37
2022-11-27T14:02:48.065Z,15.31
2022-11-27T14:04:56.132Z,15.39
2022-11-27T14:07:09.966Z,15.40
2022-11-27T14:09:11.931Z,15.36
2022-11-27T14:11:14.030Z,15.39
2022-11-27T14:13:17.148Z,15.46
2022-11-27T14:15:19.685Z,15.40
2022-11-27T14:17:33.316Z,15.37
2022-11-27T14:19:44.132Z,15.42
2022-11-27T14:21:46.071Z,15.41
2022-11-27T14:23:51.807Z,15.40
2022-11-27T14:26:03.121Z,15.41
2022-11-27T14:28:15.091Z,15.38
2022-11-27T14:30:30.520Z,15.37
2022-11-27T14:32:36.233Z,15.24
2022-11-27T14:34:38.321Z,15.34
2022-11-27T14:36:40.598Z,15.34
2022-11-27T14:38:46.885Z,15.36
2022-11-27T14:40:50.255Z,15.35
2022-11-27T14:42:52.312Z,15.23
2022-11-27T14:45:07.665Z,15.23
2022-11-27T14:47:20.211Z,15.34
2022-11-27T14:49:25.096Z,15.28
2022-11-27T14:51:30.245Z,15.30
2022-11-27T14:53:32.496Z,15.30
2022-11-27T14:55:34.946Z,15.28
2022-11-27T14:57:37.446Z,15.28
2022-11-27T14:59:41.009Z,15.13
2022-11-27T15:01:43.567Z,15.08
2022-11-27T15:03:56.340Z,15.12
2022-11-27T15:06:01.833Z,15.09
2022-11-27T15:08:04.549Z,15.01
2022-11-27T15:10:22.864Z,14.99
2022-11-27T15:12:30.403Z,15.03
2022-11-27T15:14:32.746Z,14.92
2022-11-27T15:16:46.754Z,14.98
2022-11-27T15:18:53.593Z,14.91
2022-11-27T15:20:55.975Z,14.89
2022-11-27T15:23:00.520Z,14.90
2022-11-27T15:25:06.681Z,14.91
2022-11-27T15:27:19.372Z,14.89
2022-11-27T15:29:44.652Z,14.92
2022-11-27T15:31:54.489Z,14.89
2022-11-27T15:33:59.939Z,14.90
2022-11-27T15:36:15.375Z,14.90
2022-11-27T15:38:18.786Z,14.81
2022-11-27T15:40:27.670Z,14.78
2022-11-27T15:42:30.559Z,14.82
2022-11-27T15:44:33.471Z,14.67
2022-11-27T15:46:36.829Z,14.71
2022-11-27T15:48:39.176Z,14.63
2022-11-27T15:50:45.546Z,14.65
2022-11-27T15:52:52.307Z,14.67
2022-11-27T15:54:56.790Z,14.66
2022-11-27T15:56:58.877Z,14.65
2022-11-27T15:59:02.108Z,14.60
2022-11-27T16:01:06.629Z,14.58
2022-11-27T16:03:08.713Z,14.56
2022-11-27T16:05:11.125Z,14.57
2022-11-27T16:07:13.293Z,14.56
2022-11-27T16:09:15.497Z,14.56
2022-11-27T16:11:20.034Z,14.55
2022-11-27T16:13:22.218Z,14.49
2022-11-27T16:15:27.631Z,14.47
2022-11-27T16:17:34.532Z,14.44
2022-11-27T16:19:36.757Z,14.43
2022-11-27T16:21:39.477Z,14.46
2022-11-27T16:23:42.229Z,14.37
2022-11-27T16:25:44.655Z,14.38
2022-11-27T16:27:46.849Z,14.36
2022-11-27T16:29:49.102Z,14.39
2022-11-27T16:31:51.687Z,14.43
2022-11-27T16:33:54.522Z,14.41
2022-11-27T16:35:57.118Z,14.47
2022-11-27T16:37:59.285Z,14.41
2022-11-27T16:40:01.643Z,14.36
2022-11-27T16:42:07.066Z,14.34
2022-11-27T16:44:12.804Z,14.33
2022-11-27T16:46:17.731Z,14.35
2022-11-27T16:48:19.985Z,14.30
2022-11-27T16:50:22.718Z,14.29
2022-11-27T16:52:24.904Z,14.26
2022-11-27T16:54:27.366Z,14.25
2022-11-27T16:56:31.536Z,14.25
2022-11-27T16:58:36.615Z,14.17
2022-11-27T17:00:38.911Z,14.24
2022-11-27T17:02:41.112Z,14.25
2022-11-27T17:04:43.515Z,14.19
2022-11-27T17:06:47.232Z,14.07
2022-11-27T17:08:49.885Z,14.12
2022-11-27T17:10:52.964Z,14.04
2022-11-27T17:12:55.364Z,13.99
2022-11-27T17:14:57.387Z,14.01
2022-11-27T17:16:59.664Z,13.99
2022-11-27T17:19:01.913Z,13.97
2022-11-27T17:21:07.285Z,13.95
2022-11-27T17:23:09.499Z,13.94
2022-11-27T17:25:11.721Z,13.89
2022-11-27T17:27:15.037Z,13.84
2022-11-27T17:29:19.551Z,13.80
2022-11-27T17:31:26.643Z,13.81
2022-11-27T17:33:28.896Z,13.82
2022-11-27T17:35:31.038Z,13.84
2022-11-27T17:37:33.422Z,13.91
2022-11-27T17:39:35.680Z,13.97
2022-11-27T17:41:38.081Z,14.01
2022-11-27T17:43:41.465Z,13.97
2022-11-27T17:45:43.732Z,13.91
2022-11-27T17:47:45.934Z,13.95
2022-11-27T17:49:48.255Z,13.98
2022-11-27T17:51:50.512Z,13.99
2022-11-27T17:53:52.697Z,14.00
2022-11-27T17:55:55.803Z,14.03
2022-11-27T17:57:58.621Z,14.02
2022-11-27T18:00:00.847Z,14.05
2022-11-27T18:02:03.248Z,13.96
2022-11-27T18:04:06.259Z,14.02
2022-11-27T18:06:08.627Z,14.11
2022-11-27T18:08:10.702Z,14.08
2022-11-27T18:10:12.909Z,14.08
2022-11-27T18:12:15.018Z,14.14
2022-11-27T18:14:17.126Z,14.14
2022-11-27T18:16:23.940Z,14.21
2022-11-27T18:18:26.113Z,14.24
2022-11-27T18:20:28.501Z,14.26
2022-11-27T18:22:31.165Z,14.18
2022-11-27T18:24:33.792Z,14.04
2022-11-27T18:29:00.467Z,14.09
2022-11-27T18:31:07.660Z,14.00
2022-11-27T18:33:09.792Z,14.00
2022-11-27T18:35:12.025Z,14.04
2022-11-27T18:37:14.872Z,14.07
2022-11-27T18:39:17.545Z,14.01
2022-11-27T18:41:24.348Z,13.98
2022-11-27T18:43:26.546Z,14.01
2022-11-27T18:45:33.228Z,14.01
2022-11-27T18:47:37.904Z,13.98
2022-11-27T18:49:41.336Z,14.00
2022-11-27T18:51:43.655Z,14.01
2022-11-27T18:53:46.059Z,14.06
2022-11-27T18:55:52.763Z,14.07
2022-11-27T18:57:55.264Z,14.01
2022-11-27T18:59:57.593Z,13.96
2022-11-27T19:01:59.946Z,13.99
2022-11-27T19:04:03.667Z,14.01
2022-11-27T19:06:07.488Z,14.02
2022-11-27T19:08:10.538Z,13.98
2022-11-27T19:10:12.902Z,13.94
2022-11-27T19:12:15.762Z,14.00
2022-11-27T19:14:20.077Z,14.00
2022-11-27T19:16:26.183Z,14.06
2022-11-27T19:18:28.550Z,14.02
2022-11-27T19:20:30.646Z,13.93
2022-11-27T19:22:32.736Z,13.89
2022-11-27T19:24:35.112Z,13.89
2022-11-27T19:26:37.407Z,13.89
2022-11-27T19:28:39.916Z,13.90
2022-11-27T19:30:43.973Z,13.81
2022-11-27T19:32:46.250Z,13.90
2022-11-27T19:34:50.898Z,13.85
2022-11-27T19:36:53.291Z,13.85
2022-11-27T19:39:01.800Z,13.79
2022-11-27T19:41:04.944Z,13.82
2022-11-27T19:43:07.146Z,13.76
2022-11-27T19:45:10.687Z,13.76
2022-11-27T19:47:13.271Z,13.73
2022-11-27T19:49:18.966Z,13.70
2022-11-27T19:51:21.181Z,13.74
2022-11-27T19:53:23.785Z,13.66
2022-11-27T19:55:28.012Z,13.61
2022-11-27T19:57:30.308Z,13.60
2022-11-27T19:59:32.591Z,13.62
2022-11-27T20:01:35.342Z,13.65
2022-11-27T20:03:38.643Z,13.67
2022-11-27T20:05:40.874Z,13.65
2022-11-27T20:07:43.191Z,13.65
2022-11-27T20:09:45.750Z,13.56
2022-11-27T20:11:48.066Z,13.62
2022-11-27T20:13:50.681Z,13.64
2022-11-27T20:15:53.790Z,13.57
2022-11-27T20:17:56.306Z,13.64
2022-11-27T20:19:58.793Z,13.57
2022-11-27T20:22:01.255Z,13.55
2022-11-27T20:24:03.806Z,13.55
2022-11-27T20:26:07.415Z,13.65
2022-11-27T20:28:10.379Z,13.64
2022-11-27T20:30:12.838Z,13.69
2022-11-27T20:32:15.671Z,13.75
2022-11-27T20:34:21.214Z,13.67
2022-11-27T20:36:24.626Z,13.66
2022-11-27T20:38:27.030Z,13.65
2022-11-27T20:40:29.326Z,13.69
2022-11-27T20:42:31.714Z,13.52
2022-11-27T20:44:33.797Z,13.70
2022-11-27T20:46:35.810Z,13.64
2022-11-27T20:48:39.578Z,13.60
2022-11-27T20:50:41.963Z,13.50
2022-11-27T20:52:44.423Z,13.54
2022-11-27T20:54:46.684Z,13.54
2022-11-27T20:56:51.463Z,13.51
2022-11-27T20:58:53.668Z,13.54
2022-11-27T21:00:56.785Z,13.44
2022-11-27T21:02:59.053Z,13.49
2022-11-27T21:05:01.231Z,13.44
2022-11-27T21:07:03.385Z,13.52
2022-11-27T21:09:07.695Z,13.52
2022-11-27T21:11:13.379Z,13.48
2022-11-27T21:13:15.537Z,13.50
2022-11-27T21:15:17.939Z,13.47
2022-11-27T21:17:20.064Z,13.48
2022-11-27T21:19:25.504Z,13.38
2022-11-27T21:21:28.277Z,13.51
2022-11-27T21:23:30.721Z,13.46
2022-11-27T21:25:33.030Z,13.44
2022-11-27T21:27:37.501Z,13.43
2022-11-27T21:29:40.164Z,13.44
2022-11-27T21:31:47.121Z,13.44
2022-11-27T21:33:54.783Z,13.46
2022-11-27T21:35:56.959Z,13.37
2022-11-27T21:37:59.087Z,13.41
2022-11-27T21:40:01.358Z,13.43
2022-11-27T21:42:06.440Z,13.34
2022-11-27T21:44:08.582Z,13.46
2022-11-27T21:46:13.482Z,13.47
2022-11-27T21:48:15.668Z,13.49
2022-11-27T21:50:17.952Z,13.52
2022-11-27T21:52:20.174Z,13.56
2022-11-27T21:54:22.784Z,13.55
2022-11-27T21:56:27.350Z,13.49
2022-11-27T21:58:34.284Z,13.49
2022-11-27T22:00:37.354Z,13.44
2022-11-27T22:02:39.883Z,13.45
2022-11-27T22:04:43.507Z,13.51
2022-11-27T22:06:46.348Z,13.40
2022-11-27T22:08:50.145Z,13.44
2022-11-27T22:10:52.518Z,13.47
2022-11-27T22:12:54.587Z,13.44
2022-11-27T22:14:56.641Z,13.51
2022-11-27T22:16:58.944Z,13.50
2022-11-27T22:19:01.844Z,13.47
2022-11-27T22:21:05.750Z,13.46
2022-11-27T22:23:07.904Z,13.58
2022-11-27T22:25:10.091Z,13.60
2022-11-27T22:27:12.113Z,13.59
2022-11-27T22:29:14.234Z,13.62
2022-11-27T22:31:26.941Z,13.64
2022-11-27T22:33:29.000Z,13.69
2022-11-27T22:35:31.067Z,13.69
2022-11-27T22:37:33.030Z,13.61
2022-11-27T22:39:35.153Z,13.55
2022-11-27T22:41:39.802Z,13.55
2022-11-27T22:43:42.380Z,13.57
2022-11-27T22:45:48.094Z,13.66
2022-11-27T22:47:50.153Z,13.64
2022-11-27T22:49:52.113Z,13.66
2022-11-27T22:51:54.197Z,13.66
2022-11-27T22:53:56.379Z,13.57
2022-11-27T22:56:04.818Z,13.58
2022-11-27T22:58:06.820Z,13.66
2022-11-27T23:00:10.190Z,13.60
2022-11-27T23:02:12.326Z,13.63
2022-11-27T23:04:14.591Z,13.58
2022-11-27T23:06:21.917Z,13.51
2022-11-27T23:08:24.163Z,13.54
2022-11-27T23:10:26.009Z,13.54
2022-11-27T23:12:27.901Z,13.60
2022-11-27T23:14:29.984Z,13.53
2022-11-27T23:16:32.368Z,13.53
2022-11-27T23:18:35.609Z,13.47
2022-11-27T23:20:42.297Z,13.54
2022-11-27T23:22:44.383Z,13.56
2022-11-27T23:24:46.213Z,13.52
2022-11-27T23:26:48.263Z,13.53
2022-11-27T23:28:52.888Z,13.49
2022-11-27T23:31:15.315Z,13.54
2022-11-27T23:33:16.594Z,13.56
2022-11-27T23:35:18.527Z,13.57
2022-11-27T23:37:20.421Z,13.55
2022-11-27T23:39:22.337Z,13.56
2022-11-27T23:41:25.317Z,13.57
2022-11-27T23:43:27.135Z,13.53
2022-11-27T23:45:29.151Z,13.54
2022-11-27T23:47:31.169Z,13.54
2022-11-27T23:49:33.059Z,13.57
2022-11-27T23:51:35.459Z,13.60
2022-11-27T23:53:37.781Z,13.53
2022-11-27T23:55:39.630Z,13.55
2022-11-27T23:57:44.375Z,13.51
2022-11-27T23:59:46.329Z,13.42
